Terminal Aerodrome Forecast
Issued by NWS

Home | Current Version | Previous Version | Text Only | Print | Product List | Glossary On
Versions: 1 2 3 4 5 6 7 8 9 10 11 12 13 14 15 16 17 18 19 20 21 22 23 24 25 26 27
000
FTUS43 KDLH 201100
TAFBRD
TAF
KBRD 201120Z 2012/2112 31007KT P6SM BKN012
     FM201600 28011G18KT P6SM SCT030
     FM202100 27011KT P6SM -TSRA BKN040CB
     FM210200 30010KT P6SM SCT050=

USA.gov is the U.S. government's official web portal to all federal, state and local government web resources and services.